Time;durP1;ratioP1;P1;durP2;ratioP2;P2;SDS_P1;SDS_P2;PMS_P1;PMS_P2;Temp;Humidity;BMP_temperature;BMP_pressure;BME280_temperature;BME280_humidity;BME280_pressure;Samples;Min_cycle;Max_cycle;Signal;HPM_P1;HPM_P2
2023/07/08 00:01:36;;;;;;;14.23;8.43;;;;;;;24.38;36.89;100555.88;4138614;28;20415;-68
2023/07/08 00:03:39;;;;;;;11.88;8.82;;;;;;;24.39;35.97;100552.31;4140982;28;20042;-68
2023/07/08 00:05:42;;;;;;;10.90;8.23;;;;;;;24.33;36.87;100549.91;4144236;28;20117;-68
2023/07/08 00:07:46;;;;;;;15.15;9.00;;;;;;;24.33;36.28;100552.56;4144598;28;20038;-68
2023/07/08 00:09:48;;;;;;;11.45;7.72;;;;;;;24.20;37.47;100544.25;4144770;28;20419;-67
2023/07/08 00:11:52;;;;;;;10.48;7.78;;;;;;;24.20;37.12;100552.22;4144881;28;20072;-68
2023/07/08 00:13:56;;;;;;;11.07;7.72;;;;;;;24.14;37.29;100541.84;4144034;28;20034;-68
2023/07/08 00:15:59;;;;;;;;;;;;;;;24.03;37.64;100546.72;4144627;28;20655;-68
2023/07/08 00:18:02;;;;;;;10.88;7.68;;;;;;;24.00;37.92;100547.69;4143890;28;19957;-68
2023/07/08 00:20:12;;;;;;;11.23;8.27;;;;;;;24.00;37.69;100541.53;4144688;28;20116;-67
2023/07/08 00:22:15;;;;;;;10.02;7.50;;;;;;;23.97;38.16;100539.00;4144042;28;20326;-68
2023/07/08 00:24:18;;;;;;;11.63;7.68;;;;;;;23.90;38.25;100530.41;4145100;28;20124;-68
2023/07/08 00:26:24;;;;;;;10.45;8.13;;;;;;;23.91;38.15;100534.81;4143066;28;20129;-68
2023/07/08 00:28:27;;;;;;;11.15;8.15;;;;;;;23.90;38.20;100538.38;4127460;28;20035;-68
2023/07/08 00:30:32;;;;;;;11.40;8.65;;;;;;;23.82;38.64;100529.84;4144497;28;20069;-68
2023/07/08 00:32:41;;;;;;;13.43;8.82;;;;;;;23.80;38.70;100532.56;4159760;28;20261;-68
2023/07/08 00:34:44;;;;;;;12.20;8.23;;;;;;;23.79;39.36;100530.81;4141457;28;20092;-68
2023/07/08 00:36:47;;;;;;;13.35;8.75;;;;;;;23.77;39.33;100538.00;4144755;28;20760;-68
2023/07/08 00:38:50;;;;;;;15.05;8.13;;;;;;;23.72;39.82;100541.75;4144644;28;20064;-69
2023/07/08 00:40:59;;;;;;;12.68;7.97;;;;;;;23.75;40.12;100544.28;4126842;28;20042;-68
2023/07/08 00:43:06;;;;;;;11.85;8.23;;;;;;;23.70;39.95;100547.97;4141983;28;20042;-68
2023/07/08 00:45:20;;;;;;;10.80;7.93;;;;;;;23.69;40.08;100545.38;4143012;28;20030;-68
2023/07/08 00:47:24;;;;;;;11.32;8.60;;;;;;;23.58;40.45;100553.75;4156690;28;20056;-68
2023/07/08 00:49:34;;;;;;;13.43;8.70;;;;;;;23.56;40.48;100555.59;4128892;28;20053;-68
2023/07/08 00:51:39;;;;;;;12.82;8.63;;;;;;;23.57;40.24;100556.47;4142467;28;20042;-68
2023/07/08 00:53:42;;;;;;;11.52;8.90;;;;;;;23.52;39.98;100554.88;4143207;28;20575;-68
2023/07/08 00:55:45;;;;;;;12.95;9.00;;;;;;;23.53;39.95;100561.88;4141259;28;20061;-68
2023/07/08 00:57:47;;;;;;;14.25;10.02;;;;;;;23.51;39.88;100562.91;4142732;28;20045;-68
2023/07/08 00:59:56;;;;;;;13.63;9.48;;;;;;;23.47;40.11;100570.09;4159369;28;20042;-68
2023/07/08 01:02:02;;;;;;;12.88;9.00;;;;;;;23.46;40.48;100567.50;4144802;28;20125;-68
2023/07/08 01:04:12;;;;;;;19.13;9.25;;;;;;;23.50;40.37;100571.78;4146477;28;20510;-68
2023/07/08 01:06:16;;;;;;;13.15;7.82;;;;;;;23.48;40.56;100573.59;4130584;28;20038;-68
2023/07/08 01:08:17;;;;;;;13.48;9.60;;;;;;;23.46;40.94;100572.81;4162711;28;20066;-68
2023/07/08 01:10:27;;;;;;;13.93;9.30;;;;;;;23.42;41.09;100573.84;4145728;28;20057;-68
2023/07/08 01:12:34;;;;;;;11.88;8.70;;;;;;;23.43;41.25;100575.56;4146472;28;20034;-68
2023/07/08 01:14:43;;;;;;;14.45;10.07;;;;;;;23.41;41.31;100569.44;4146455;28;20129;-68
2023/07/08 01:16:46;;;;;;;13.82;9.73;;;;;;;23.41;41.39;100569.44;4126962;28;20041;-68
2023/07/08 01:18:53;;;;;;;14.27;9.20;;;;;;;23.39;41.66;100566.84;4162832;28;20477;-68
2023/07/08 01:21:22;;;;;;;12.88;9.38;;;;;;;23.42;41.50;100565.88;4166018;22;20079;-67
2023/07/08 01:23:27;;;;;;;14.80;9.68;;;;;;;23.39;41.58;100558.03;4160936;28;20037;-67
2023/07/08 01:25:29;;;;;;;16.92;10.57;;;;;;;23.38;41.68;100559.84;4160822;28;20171;-67
2023/07/08 01:27:36;;;;;;;14.13;10.05;;;;;;;23.37;41.60;100550.13;4158486;28;20132;-67
2023/07/08 01:29:39;;;;;;;15.50;10.88;;;;;;;23.27;42.33;100554.91;4162419;28;20033;-67
2023/07/08 01:31:48;;;;;;;15.63;10.18;;;;;;;23.27;42.12;100554.06;4166262;28;20491;-68
2023/07/08 01:33:53;;;;;;;13.43;9.07;;;;;;;23.22;42.42;100556.88;4144444;28;20140;-68
2023/07/08 01:35:58;;;;;;;11.73;8.98;;;;;;;23.22;42.81;100553.34;4140421;28;20042;-67
2023/07/08 01:38:05;;;;;;;15.48;9.55;;;;;;;23.21;42.80;100549.00;4145726;28;20320;-68
2023/07/08 01:40:24;;;;;;;13.48;9.55;;;;;;;23.17;42.66;100540.25;4160148;28;20522;-68
2023/07/08 01:42:27;;;;;;;13.88;10.07;;;;;;;23.05;43.20;100546.00;4143716;28;20125;-67
2023/07/08 01:44:31;;;;;;;16.23;9.90;;;;;;;23.01;43.79;100543.47;4145360;28;20133;-67
2023/07/08 01:46:34;;;;;;;;;;;;;;;22.99;43.80;100542.63;4146179;28;20041;-67
2023/07/08 01:48:41;;;;;;;12.38;9.35;;;;;;;22.94;43.89;100536.66;4144373;28;19922;-67
2023/07/08 01:50:49;;;;;;;14.45;9.50;;;;;;;22.95;44.02;100540.16;4145598;28;20121;-67
2023/07/08 01:52:54;;;;;;;14.02;9.75;;;;;;;22.90;44.33;100529.72;4142849;28;20492;-67
2023/07/08 01:54:57;;;;;;;18.80;10.43;;;;;;;22.82;44.36;100537.97;4157966;28;20045;-67
2023/07/08 01:57:02;;;;;;;11.60;9.05;;;;;;;22.84;44.50;100541.41;4143166;28;20521;-67
2023/07/08 01:59:05;;;;;;;14.90;9.52;;;;;;;22.87;44.58;100535.13;4145270;28;20084;-67
2023/07/08 02:01:08;;;;;;;13.77;10.50;;;;;;;22.79;44.80;100537.19;4144038;28;20041;-67
2023/07/08 02:03:11;;;;;;;15.30;9.95;;;;;;;22.78;44.71;100531.03;4129388;28;20500;-67
2023/07/08 02:05:15;;;;;;;14.10;9.70;;;;;;;22.75;44.66;100533.78;4143351;28;20158;-67
2023/07/08 02:07:18;;;;;;;17.30;9.65;;;;;;;22.75;44.75;100535.56;4161352;28;20566;-67
2023/07/08 02:09:21;;;;;;;16.92;11.02;;;;;;;22.69;44.91;100533.97;4144242;28;20565;-67
2023/07/08 02:11:27;;;;;;;14.68;10.32;;;;;;;22.69;44.68;100531.31;4146583;28;20049;-67
2023/07/08 02:13:31;;;;;;;14.65;10.15;;;;;;;22.75;44.56;100530.25;4145585;28;20045;-67
2023/07/08 02:15:34;;;;;;;;;;;;;;;22.58;45.10;100536.16;4143119;28;20056;-68
2023/07/08 02:17:36;;;;;;;13.88;9.63;;;;;;;22.55;45.18;100542.44;4145049;28;20060;-67
2023/07/08 02:19:39;;;;;;;14.63;9.25;;;;;;;22.61;45.09;100526.31;4145215;28;20515;-67
2023/07/08 02:21:42;;;;;;;13.85;9.52;;;;;;;22.57;45.08;100527.31;4140578;28;20452;-68
2023/07/08 02:23:50;;;;;;;15.05;9.23;;;;;;;22.55;45.32;100526.53;4144713;28;20029;-68
2023/07/08 02:25:53;;;;;;;13.60;9.45;;;;;;;22.61;45.70;100534.25;4157776;28;20076;-67
2023/07/08 02:27:57;;;;;;;18.77;11.73;;;;;;;22.63;45.52;100526.25;4146387;28;20072;-67
2023/07/08 02:30:01;;;;;;;13.77;9.60;;;;;;;22.55;45.82;100531.81;4123858;28;20050;-67
2023/07/08 02:32:05;;;;;;;16.70;10.90;;;;;;;22.58;45.81;100534.38;4145638;28;20052;-67
2023/07/08 02:34:08;;;;;;;14.48;9.63;;;;;;;22.53;45.93;100536.31;4145420;28;20496;-67
2023/07/08 02:36:11;;;;;;;15.15;10.50;;;;;;;22.47;46.41;100542.69;4144863;28;20048;-67
2023/07/08 02:38:14;;;;;;;16.83;10.60;;;;;;;22.50;46.20;100539.06;4144029;28;20034;-67
2023/07/08 02:40:17;;;;;;;15.80;10.50;;;;;;;22.48;45.69;100532.94;4129241;28;20051;-67
2023/07/08 02:42:20;;;;;;;17.88;10.50;;;;;;;22.43;46.31;100542.84;4144425;28;20121;-67
2023/07/08 02:44:23;;;;;;;16.27;9.88;;;;;;;22.42;46.39;100543.75;4157753;28;20057;-67
2023/07/08 02:46:27;;;;;;;15.88;10.88;;;;;;;22.41;46.62;100547.31;4140556;28;20061;-67
2023/07/08 02:48:30;;;;;;;;;;;;;;;22.33;47.09;100549.34;4158674;28;20037;-67
2023/07/08 02:50:33;;;;;;;12.60;10.10;;;;;;;22.35;47.19;100550.19;4143617;28;20181;-67
2023/07/08 02:52:36;;;;;;;15.48;10.05;;;;;;;22.35;47.14;100555.47;4143664;28;20061;-67
2023/07/08 02:54:39;;;;;;;15.13;10.00;;;;;;;22.37;47.40;100558.94;4143818;28;20034;-67
2023/07/08 02:56:42;;;;;;;15.07;9.10;;;;;;;22.35;47.26;100555.47;4145473;28;20088;-67
2023/07/08 02:58:45;;;;;;;13.80;9.00;;;;;;;22.43;47.30;100558.75;4146906;28;20037;-67
2023/07/08 03:00:52;;;;;;;15.35;10.23;;;;;;;22.45;47.51;100555.09;4128970;28;20484;-67
2023/07/08 03:02:56;;;;;;;14.77;10.00;;;;;;;22.36;47.78;100557.22;4143392;28;20041;-67
2023/07/08 03:05:00;;;;;;;;;;;;;;;22.19;48.55;100557.72;4144830;28;20099;-67
2023/07/08 03:07:04;;;;;;;14.50;10.15;;;;;;;22.22;48.50;100552.34;4144841;28;19921;-67
2023/07/08 03:09:07;;;;;;;12.98;8.88;;;;;;;22.21;48.42;100556.78;4139870;28;20101;-67
2023/07/08 03:11:13;;;;;;;19.00;10.80;;;;;;;22.24;48.86;100567.25;4128799;28;20054;-67
2023/07/08 03:13:16;;;;;;;16.60;10.30;;;;;;;22.25;49.15;100573.41;4146177;28;20041;-67
2023/07/08 03:15:18;;;;;;;13.93;10.15;;;;;;;22.19;49.34;100563.88;4144350;28;20048;-67
2023/07/08 03:17:21;;;;;;;13.10;9.57;;;;;;;22.18;49.43;100564.81;4126397;28;20042;-67
2023/07/08 03:19:26;;;;;;;13.50;9.95;;;;;;;22.09;49.61;100559.81;4144698;28;20708;-67
2023/07/08 03:21:29;;;;;;;;;;;;;;;22.03;49.87;100560.00;4145618;28;20088;-67
2023/07/08 03:23:32;;;;;;;15.90;9.65;;;;;;;22.11;49.86;100560.63;4128747;28;20024;-68
2023/07/08 03:25:36;;;;;;;14.32;9.68;;;;;;;22.16;49.97;100558.69;4127793;28;20137;-67
2023/07/08 03:27:40;;;;;;;16.30;9.30;;;;;;;22.12;49.99;100563.22;4145264;28;20052;-67
2023/07/08 03:29:43;;;;;;;18.17;10.63;;;;;;;22.13;50.43;100564.09;4144457;28;20048;-67
2023/07/08 03:31:46;;;;;;;15.23;10.60;;;;;;;22.07;50.60;100557.22;4128402;28;20039;-67
2023/07/08 03:33:48;;;;;;;16.47;10.80;;;;;;;22.11;50.73;100558.00;4154195;28;20491;-67
2023/07/08 03:35:55;;;;;;;14.18;10.05;;;;;;;22.17;50.51;100560.44;4146238;28;20046;-67
2023/07/08 03:37:58;;;;;;;14.10;9.95;;;;;;;22.13;50.91;100564.09;4145004;28;20381;-67
2023/07/08 03:40:01;;;;;;;13.95;9.98;;;;;;;22.11;51.27;100573.88;4140602;28;20038;-67
2023/07/08 03:42:05;;;;;;;14.77;10.38;;;;;;;22.07;51.46;100565.16;4128202;28;20034;-67
2023/07/08 03:44:07;;;;;;;14.13;9.80;;;;;;;22.02;50.90;100567.09;4145310;28;20128;-67
2023/07/08 03:46:11;;;;;;;14.07;10.10;;;;;;;22.06;51.44;100574.00;4144698;28;20136;-67
2023/07/08 03:48:14;;;;;;;15.63;10.48;;;;;;;22.02;51.87;100574.16;4144589;28;20037;-67
2023/07/08 03:50:20;;;;;;;13.73;10.00;;;;;;;21.99;52.04;100574.25;4142454;28;20042;-67
2023/07/08 03:52:25;;;;;;;13.45;10.40;;;;;;;22.07;51.89;100577.53;4141861;28;20448;-67
2023/07/08 03:54:28;;;;;;;14.93;10.48;;;;;;;22.07;51.38;100572.25;4145424;28;20045;-67
2023/07/08 03:56:33;;;;;;;15.27;11.00;;;;;;;22.13;51.58;100570.25;4143287;28;20435;-68
2023/07/08 03:58:37;;;;;;;14.85;10.43;;;;;;;22.08;51.66;100571.31;4142826;28;20046;-67
2023/07/08 04:00:41;;;;;;;13.10;9.47;;;;;;;22.08;51.53;100560.75;4157808;28;20491;-67
2023/07/08 04:02:45;;;;;;;17.23;9.70;;;;;;;22.16;51.29;100569.28;4160803;28;20306;-67
2023/07/08 04:04:54;;;;;;;14.73;10.25;;;;;;;22.13;51.99;100557.00;4144070;28;20156;-67
2023/07/08 04:06:59;;;;;;;14.25;9.95;;;;;;;22.13;51.80;100553.50;4137545;28;20156;-67
2023/07/08 04:09:04;;;;;;;14.15;10.38;;;;;;;22.19;51.71;100550.66;4143243;28;20030;-67
2023/07/08 04:11:07;;;;;;;;;;;;;;;22.02;52.07;100561.81;4158879;28;20481;-67
2023/07/08 04:13:09;;;;;;;15.65;10.18;;;;;;;21.95;52.07;100568.19;4145715;28;19929;-67
2023/07/08 04:15:13;;;;;;;16.67;10.35;;;;;;;21.89;52.67;100565.72;4145352;28;20072;-67
2023/07/08 04:17:18;;;;;;;16.60;11.10;;;;;;;21.88;52.72;100564.88;4144885;28;20045;-67
2023/07/08 04:19:22;;;;;;;14.02;10.05;;;;;;;21.88;52.88;100569.31;4143342;28;20394;-67
2023/07/08 04:21:26;;;;;;;14.30;10.57;;;;;;;21.91;52.89;100575.34;4145478;28;20072;-67
2023/07/08 04:23:29;;;;;;;13.57;9.67;;;;;;;21.95;52.52;100571.69;4143055;28;20381;-67
2023/07/08 04:25:33;;;;;;;14.05;9.43;;;;;;;22.03;52.34;100568.81;4143041;28;20589;-67
2023/07/08 04:27:36;;;;;;;12.82;9.60;;;;;;;22.01;52.29;100575.09;4145213;28;20403;-67
2023/07/08 04:29:39;;;;;;;14.52;9.85;;;;;;;22.05;52.84;100577.59;4138212;28;20054;-67
2023/07/08 04:31:41;;;;;;;14.25;10.75;;;;;;;22.08;52.64;100581.91;4145002;28;20049;-67
2023/07/08 04:33:44;;;;;;;16.00;9.30;;;;;;;22.14;52.62;100579.94;4144036;28;20069;-67
2023/07/08 04:35:47;;;;;;;13.45;9.68;;;;;;;22.23;52.36;100575.25;4140877;28;20038;-67
2023/07/08 04:37:50;;;;;;;16.08;10.32;;;;;;;22.23;52.44;100576.13;4126769;28;20078;-67
2023/07/08 04:39:53;;;;;;;18.75;9.60;;;;;;;22.21;52.25;100583.25;4118296;28;20043;-67
2023/07/08 04:41:57;;;;;;;12.45;9.30;;;;;;;22.25;52.19;100581.34;4141150;28;20042;-67
2023/07/08 04:44:02;;;;;;;15.43;10.55;;;;;;;22.19;52.42;100582.41;4143730;28;20427;-67
2023/07/08 04:46:23;;;;;;;16.45;10.02;;;;;;;22.12;52.61;100571.19;4145339;28;20056;-68
2023/07/08 04:48:26;;;;;;;13.55;9.45;;;;;;;22.12;52.59;100583.53;4142469;28;20065;-68
2023/07/08 04:50:29;;;;;;;16.02;9.40;;;;;;;22.11;52.57;100581.81;4142897;28;20081;-68
2023/07/08 04:52:32;;;;;;;16.13;10.93;;;;;;;22.18;52.75;100582.47;4143788;28;20496;-67
2023/07/08 04:54:35;;;;;;;17.42;11.02;;;;;;;22.19;52.53;100582.41;4144175;28;20480;-68
2023/07/08 04:56:39;;;;;;;13.57;9.93;;;;;;;22.25;52.43;100584.91;4145256;28;20038;-68
2023/07/08 04:58:43;;;;;;;13.97;10.50;;;;;;;22.35;52.50;100589.91;4142615;28;20526;-68
2023/07/08 05:00:46;;;;;;;13.77;9.45;;;;;;;22.41;52.20;100589.72;4143380;28;20062;-68
2023/07/08 05:02:49;;;;;;;14.05;9.25;;;;;;;22.49;51.95;100582.38;4143717;28;20117;-67
2023/07/08 05:04:52;;;;;;;13.20;9.20;;;;;;;22.61;51.99;100586.41;4158508;28;20049;-68
2023/07/08 05:06:55;;;;;;;15.90;10.30;;;;;;;22.70;52.05;100586.06;4143786;28;20065;-67
2023/07/08 05:08:59;;;;;;;13.15;9.63;;;;;;;22.82;51.01;100590.09;4143366;28;20428;-67
2023/07/08 05:11:02;;;;;;;15.02;10.98;;;;;;;22.86;49.46;100602.31;4145292;28;20058;-67
2023/07/08 05:13:06;;;;;;;18.15;10.65;;;;;;;22.89;49.38;100618.13;4141550;28;20066;-67
2023/07/08 05:15:11;;;;;;;14.80;10.20;;;;;;;22.88;48.61;100621.72;4144349;28;20061;-67
2023/07/08 05:17:14;;;;;;;18.13;10.57;;;;;;;22.86;47.97;100612.06;4144631;28;20034;-67
2023/07/08 05:19:18;;;;;;;15.68;12.05;;;;;;;22.95;47.74;100612.59;4141644;28;20045;-67
2023/07/08 05:21:21;;;;;;;18.70;12.25;;;;;;;23.09;46.92;100598.88;4141082;28;20254;-67
2023/07/08 05:23:25;;;;;;;13.85;10.52;;;;;;;23.07;47.12;100615.75;4145024;28;20040;-67
2023/07/08 05:25:28;;;;;;;14.63;10.50;;;;;;;23.06;47.61;100622.84;4143647;28;20069;-67
2023/07/08 05:27:33;;;;;;;14.52;9.80;;;;;;;23.10;47.46;100620.94;4144613;28;20076;-67
2023/07/08 05:29:35;;;;;;;15.43;9.27;;;;;;;23.30;46.92;100621.13;4144721;28;20513;-67
2023/07/08 05:31:40;;;;;;;15.20;8.77;;;;;;;23.40;46.84;100611.03;4144933;28;20128;-67
2023/07/08 05:33:50;;;;;;;17.58;11.45;;;;;;;23.62;45.67;100613.75;4142968;28;20049;-67
2023/07/08 05:35:53;;;;;;;15.07;10.90;;;;;;;23.72;44.88;100622.25;4144450;28;20061;-67
2023/07/08 05:37:56;;;;;;;14.10;9.32;;;;;;;23.67;45.67;100626.84;4145142;28;20041;-68
2023/07/08 05:40:01;;;;;;;19.60;9.60;;;;;;;23.73;45.32;100634.59;4127497;28;20038;-67
2023/07/08 05:42:04;;;;;;;14.25;8.50;;;;;;;23.72;45.44;100642.63;4144275;28;20042;-68
2023/07/08 05:44:07;;;;;;;12.95;8.43;;;;;;;23.73;45.66;100647.00;4141898;28;21521;-67
2023/07/08 05:46:10;;;;;;;13.65;8.13;;;;;;;23.65;45.43;100653.44;4147414;28;20038;-68
2023/07/08 05:48:16;;;;;;;;;;;;;;;23.58;45.91;100670.53;4147758;28;20107;-67
2023/07/08 05:50:19;;;;;;;13.07;9.00;;;;;;;23.59;46.13;100671.41;4144739;28;19921;-67
2023/07/08 05:52:21;;;;;;;16.83;10.63;;;;;;;23.64;46.29;100654.41;4145348;28;20084;-67
2023/07/08 05:54:24;;;;;;;15.63;9.55;;;;;;;23.70;45.45;100653.31;4147463;28;20044;-67
2023/07/08 05:56:30;;;;;;;12.65;8.13;;;;;;;23.55;45.87;100654.72;4147354;28;20403;-67
2023/07/08 05:58:33;;;;;;;16.38;10.50;;;;;;;23.53;46.31;100651.25;4144241;28;20034;-67
2023/07/08 06:00:36;;;;;;;13.00;9.43;;;;;;;23.47;46.73;100662.13;4145789;28;20133;-68
2023/07/08 06:02:41;;;;;;;16.95;8.73;;;;;;;23.41;46.14;100673.81;4147865;28;20038;-68
2023/07/08 06:04:45;;;;;;;15.20;9.30;;;;;;;23.35;46.27;100684.66;4160486;28;20114;-68
2023/07/08 06:06:48;;;;;;;13.70;9.23;;;;;;;23.29;46.66;100696.34;4144531;28;20038;-68
2023/07/08 06:08:51;;;;;;;13.50;9.20;;;;;;;23.31;47.34;100698.94;4128472;28;20523;-67
2023/07/08 06:10:54;;;;;;;14.15;8.90;;;;;;;23.38;47.76;100694.25;4155295;28;20049;-67
2023/07/08 06:12:57;;;;;;;15.55;7.80;;;;;;;23.41;48.04;100696.81;4147517;28;20042;-68
2023/07/08 06:15:00;;;;;;;12.25;8.45;;;;;;;23.40;48.45;100705.69;4145583;28;20996;-68
2023/07/08 06:17:02;;;;;;;12.60;8.32;;;;;;;23.44;48.22;100715.28;4144615;28;20048;-67
2023/07/08 06:19:05;;;;;;;13.88;8.57;;;;;;;23.38;48.14;100715.47;4144900;28;20042;-67
2023/07/08 06:21:10;;;;;;;16.70;9.85;;;;;;;23.45;48.32;100701.97;4160592;28;20033;-67
2023/07/08 06:23:12;;;;;;;13.60;9.30;;;;;;;23.42;48.14;100702.09;4147426;28;20081;-67
2023/07/08 06:25:15;;;;;;;13.45;8.82;;;;;;;23.45;48.94;100706.38;4159763;28;20839;-67
2023/07/08 06:27:18;;;;;;;12.52;8.90;;;;;;;23.44;48.78;100702.03;4144910;28;20061;-68
2023/07/08 06:29:21;;;;;;;15.63;9.68;;;;;;;23.56;48.56;100696.25;4142720;28;20038;-67
2023/07/08 06:31:24;;;;;;;20.42;10.48;;;;;;;23.54;46.55;100692.81;4143721;28;20121;-68
2023/07/08 06:33:26;;;;;;;14.80;9.23;;;;;;;23.43;46.10;100692.31;4147157;28;20067;-68
2023/07/08 06:35:29;;;;;;;14.10;9.18;;;;;;;23.51;41.53;100685.81;4146292;28;20476;-69
2023/07/08 06:37:33;;;;;;;12.90;7.82;;;;;;;23.39;42.18;100702.16;4147367;28;20042;-66
2023/07/08 06:39:36;;;;;;;11.02;7.53;;;;;;;23.29;42.16;100704.28;4146927;28;20138;-68
2023/07/08 06:41:41;;;;;;;11.55;8.07;;;;;;;23.28;42.90;100704.34;4142383;28;20053;-69
2023/07/08 06:43:44;;;;;;;11.68;7.95;;;;;;;23.33;42.88;100694.44;4146683;28;20049;-69
2023/07/08 06:45:51;;;;;;;11.95;8.05;;;;;;;23.44;41.66;100691.41;4143649;28;20049;-68
2023/07/08 06:47:54;;;;;;;15.30;8.52;;;;;;;23.51;41.23;100688.47;4138651;28;20089;-68
2023/07/08 06:49:57;;;;;;;13.77;7.85;;;;;;;23.56;41.64;100683.00;4144851;28;20026;-68
2023/07/08 06:52:01;;;;;;;13.02;7.68;;;;;;;23.58;42.55;100669.66;4144053;28;20605;-67
2023/07/08 06:54:10;;;;;;;12.70;8.27;;;;;;;23.66;42.43;100676.44;4146241;28;20394;-68
2023/07/08 06:56:13;;;;;;;9.65;7.35;;;;;;;23.86;41.73;100674.88;4141630;28;20046;-68
2023/07/08 06:58:16;;;;;;;11.68;7.70;;;;;;;23.84;40.96;100684.63;4159531;28;20045;-67
2023/07/08 07:00:19;;;;;;;15.57;8.45;;;;;;;23.88;41.68;100688.94;4144644;28;20041;-68
2023/07/08 07:02:22;;;;;;;12.50;7.38;;;;;;;23.86;41.80;100680.19;4147703;28;20072;-67
2023/07/08 07:04:25;;;;;;;14.82;7.90;;;;;;;23.96;42.20;100678.03;4148529;28;20089;-67
2023/07/08 07:06:28;;;;;;;13.45;8.10;;;;;;;24.07;42.25;100681.13;4147725;28;20142;-67
2023/07/08 07:08:31;;;;;;;9.50;7.55;;;;;;;24.09;42.71;100686.38;4143831;28;20034;-66
2023/07/08 07:10:34;;;;;;;11.05;6.80;;;;;;;24.04;41.07;100684.78;4143041;28;20093;-66
2023/07/08 07:12:39;;;;;;;10.93;7.47;;;;;;;24.12;40.27;100689.78;4146438;28;20046;-65
2023/07/08 07:14:41;;;;;;;10.77;7.63;;;;;;;24.01;41.00;100684.88;4148252;28;20038;-66
2023/07/08 07:16:47;;;;;;;8.80;6.03;;;;;;;23.91;41.19;100687.97;4148749;28;20121;-66
2023/07/08 07:19:09;;;;;;;9.63;6.28;;;;;;;23.92;41.72;100689.69;4148967;28;20126;-65
2023/07/08 07:21:12;;;;;;;14.43;7.75;;;;;;;24.05;41.42;100685.66;4166606;22;20183;-65
2023/07/08 07:23:15;;;;;;;13.80;7.40;;;;;;;24.11;41.75;100680.09;4163332;28;20435;-62
2023/07/08 07:25:18;;;;;;;12.68;7.63;;;;;;;24.23;41.11;100682.25;4163421;28;20049;-62
2023/07/08 07:27:22;;;;;;;11.15;6.88;;;;;;;24.20;41.25;100685.03;4165256;28;20051;-62
2023/07/08 07:29:25;;;;;;;9.55;6.35;;;;;;;24.11;40.74;100689.84;4163380;28;20038;-63
2023/07/08 07:31:29;;;;;;;10.03;7.40;;;;;;;24.18;41.54;100686.91;4164870;28;20053;-64
2023/07/08 07:33:32;;;;;;;8.52;6.45;;;;;;;24.21;41.72;100686.78;4178057;28;20044;-64
2023/07/08 07:35:35;;;;;;;9.60;6.78;;;;;;;24.34;42.16;100692.47;4160469;28;20045;-64
2023/07/08 07:37:38;;;;;;;9.63;6.38;;;;;;;24.56;42.18;100691.59;4163774;28;20045;-63
2023/07/08 07:39:41;;;;;;;8.02;5.65;;;;;;;24.87;41.20;100703.69;4160202;28;20641;-64
2023/07/08 07:41:44;;;;;;;10.27;6.60;;;;;;;24.97;40.11;100702.38;4161870;28;20487;-64
2023/07/08 07:43:48;;;;;;;10.43;6.47;;;;;;;25.08;40.20;100708.09;4164045;28;20043;-64
2023/07/08 07:45:52;;;;;;;11.00;6.95;;;;;;;25.22;40.86;100696.00;4164939;28;20488;-64
2023/07/08 07:47:54;;;;;;;13.52;8.18;;;;;;;25.51;40.61;100696.53;4159751;28;20521;-64
2023/07/08 07:49:58;;;;;;;9.93;6.47;;;;;;;25.75;40.23;100702.59;4159904;28;20487;-64
2023/07/08 07:52:01;;;;;;;13.65;7.22;;;;;;;26.02;40.48;100707.59;4162798;28;20073;-66
2023/07/08 07:54:04;;;;;;;9.32;7.22;;;;;;;26.23;41.11;100703.09;4163936;28;20048;-64
2023/07/08 07:56:07;;;;;;;12.50;8.02;;;;;;;26.45;40.82;100710.91;4162928;28;20042;-63
2023/07/08 07:58:11;;;;;;;12.23;6.20;;;;;;;26.51;41.15;100715.94;4161886;28;20084;-63
2023/07/08 08:00:16;;;;;;;12.90;6.35;;;;;;;26.72;40.66;100711.41;4148763;28;20069;-63
2023/07/08 08:02:19;;;;;;;8.00;5.63;;;;;;;26.82;40.80;100717.13;4147051;28;20054;-63
2023/07/08 08:04:22;;;;;;;12.02;7.10;;;;;;;26.89;40.67;100707.88;4161101;28;20038;-66
2023/07/08 08:06:27;;;;;;;8.15;5.00;;;;;;;26.86;41.32;100718.72;4163443;28;20112;-66
2023/07/08 08:08:40;;;;;;;12.18;6.20;;;;;;;26.86;41.10;100720.53;4160082;28;20296;-62
2023/07/08 08:10:43;;;;;;;9.13;5.32;;;;;;;27.02;40.72;100721.47;4163716;28;20571;-63
2023/07/08 08:12:50;;;;;;;11.98;5.68;;;;;;;27.00;40.98;100718.88;4163032;28;20042;-62
2023/07/08 08:14:56;;;;;;;13.18;6.22;;;;;;;27.07;41.37;100731.91;4146200;28;20522;-62
2023/07/08 08:17:00;;;;;;;10.50;5.15;;;;;;;27.09;41.79;100730.91;4148187;28;20052;-62
2023/07/08 08:19:03;;;;;;;9.05;6.18;;;;;;;27.24;42.02;100731.06;4150901;28;20152;-63
2023/07/08 08:21:10;;;;;;;9.13;5.60;;;;;;;27.28;42.16;100727.28;4162865;28;20029;-62
2023/07/08 08:23:13;;;;;;;8.00;4.88;;;;;;;27.28;42.21;100728.16;4164162;28;20057;-62
2023/07/08 08:25:19;;;;;;;8.27;4.65;;;;;;;27.32;42.12;100715.50;4161485;28;20048;-63
2023/07/08 08:27:22;;;;;;;8.75;4.60;;;;;;;27.43;42.18;100728.34;4163861;28;20069;-62
2023/07/08 08:29:25;;;;;;;9.25;4.03;;;;;;;27.39;41.90;100724.09;4164167;28;20034;-62
2023/07/08 08:31:28;;;;;;;7.88;3.60;;;;;;;27.43;41.95;100725.66;4163198;28;20087;-63
2023/07/08 08:33:33;;;;;;;7.72;4.10;;;;;;;27.38;42.66;100731.25;4163112;28;20091;-63
2023/07/08 08:35:35;;;;;;;;;;;;;;;27.49;42.72;100731.53;4164178;28;20045;-62
2023/07/08 08:37:38;;;;;;;8.07;3.88;;;;;;;27.31;42.82;100743.16;4163474;28;20317;-62
2023/07/08 08:39:41;;;;;;;7.32;4.15;;;;;;;27.27;42.95;100734.41;4162868;28;20059;-63
2023/07/08 08:41:44;;;;;;;14.00;4.72;;;;;;;26.98;43.69;100741.25;4163976;28;20407;-62
2023/07/08 08:43:49;;;;;;;10.57;4.20;;;;;;;26.84;43.40;100739.28;4163549;28;20038;-63
2023/07/08 08:46:00;;;;;;;7.80;4.10;;;;;;;26.91;44.00;100746.03;4162723;28;20492;-62
2023/07/08 08:48:09;;;;;;;6.63;3.40;;;;;;;27.22;43.16;100741.81;4161690;28;20049;-62
2023/07/08 08:50:26;;;;;;;17.60;4.53;;;;;;;27.56;42.13;100740.09;4163437;28;20414;-62
2023/07/08 08:52:30;;;;;;;9.00;3.58;;;;;;;27.51;42.35;100735.00;4164020;28;20038;-62
2023/07/08 08:54:32;;;;;;;7.93;3.63;;;;;;;27.49;42.88;100731.53;4162527;28;20284;-62
2023/07/08 08:56:45;;;;;;;8.55;3.80;;;;;;;27.55;42.31;100726.81;4153691;28;20050;-62
2023/07/08 08:58:56;;;;;;;10.88;4.20;;;;;;;27.68;42.38;100726.06;4135471;28;20519;-62
2023/07/08 09:01:01;;;;;;;6.53;3.40;;;;;;;27.75;42.17;100731.97;4157118;28;20119;-62
2023/07/08 09:03:11;;;;;;;6.38;3.40;;;;;;;27.73;41.43;100725.84;4158950;28;20037;-62
2023/07/08 09:05:16;;;;;;;7.45;3.97;;;;;;;27.84;41.41;100730.63;4141867;28;20459;-62
2023/07/08 09:07:21;;;;;;;6.38;3.65;;;;;;;27.99;41.44;100731.63;4176700;28;20049;-62
2023/07/08 09:09:31;;;;;;;8.20;3.75;;;;;;;28.02;41.12;100732.31;4158919;28;20138;-62
2023/07/08 09:11:42;;;;;;;7.55;4.15;;;;;;;28.18;41.56;100727.00;4159194;28;20033;-62
2023/07/08 09:13:45;;;;;;;16.73;4.88;;;;;;;28.33;40.79;100727.09;4159195;28;20033;-62
2023/07/08 09:15:52;;;;;;;10.43;4.00;;;;;;;28.20;41.15;100726.91;4159141;28;20054;-62
2023/07/08 09:18:04;;;;;;;5.50;3.17;;;;;;;28.12;40.94;100727.31;4156881;28;20049;-62
2023/07/08 09:20:19;;;;;;;7.55;3.75;;;;;;;28.09;41.10;100722.13;4160650;28;20055;-62
2023/07/08 09:22:35;;;;;;;9.40;4.13;;;;;;;27.99;41.13;100723.59;4160787;28;20056;-62
2023/07/08 09:24:43;;;;;;;8.48;4.22;;;;;;;28.02;40.81;100723.44;4162644;28;20100;-62
2023/07/08 09:26:47;;;;;;;8.68;3.85;;;;;;;28.13;41.18;100726.38;4162174;28;20056;-62
2023/07/08 09:28:50;;;;;;;8.25;4.07;;;;;;;28.12;41.02;100719.28;4160326;28;20649;-62
2023/07/08 09:30:54;;;;;;;8.48;4.13;;;;;;;28.26;40.81;100723.03;4159400;28;20039;-62
2023/07/08 09:32:58;;;;;;;11.23;4.18;;;;;;;28.29;40.79;100726.38;4163477;28;20048;-62
2023/07/08 09:35:05;;;;;;;9.30;4.07;;;;;;;28.42;41.00;100729.25;4163329;28;20144;-62